Portada
METAR-TAF:

METAR-TAF

Aeroports :

Northolt, Anglaterra

latitud: 51-33N, longitud: 000-25W, altitud: 38 m

Observació

L'informe es va fer fa 40 minuts, a les 15:21 UTC
Vent 6 kt del Nord
Temperatura 12°C
Humitat 44%
Pressió 1031 hPa
Visibilitat 10 km o més
sense núvols per sota de 1500 mi sense presència de cumulonimbus.

METAR: EGWU 131521Z 35006KT CAVOK 12/00 Q1031 NOSIG RMK BLU BLU

Hora: 17:01 (16:01 UTC)

Pronòstic

L'informe es va fer fa 2 hores i 37 minuts, a les 13:24 UTC
Pronòstic vàlid del 13 a les 15 UTC al 14 a les 09 UTC
Vent 5 kt amb direcció variable
Visibilitat 10 km o més
sense núvols per sota de 1500 mi sense presència de cumulonimbus.
Probabilitat 30%
l' 14 a les 03 UTC al 14 a les 07 UTC
Visibilitat: 6000 m
boirina, Boira superficial

TAF: EGWU 131324Z 1315/1409 VRB05KT CAVOK PROB30 1403/1407 6000 BR MIFG

Observacions i pronòstics meteorològics de més de 4000 aeroports (METAR i TAF).

Les estacions disponibles són els punts grocs i vermells al mapa.

Posi el ratolí al punt desitjat per veure el nom de l'estació.

Feu clic per veure les observacions i els pronòstics meteorològics.

Per canviar el mapa: feu clic els botons verds amb una creu de color negre per apropar; al botó verd amb un guió per allunyar la imatge; o en les fletxes verdes per a mapes adjacents.


METAR-TAF: